F/V Roger Christian3 — FUFL — position and weather

sailwx.info

Track history (hours):
 
Tides and Currents Weather Stations Pressure Air Temp Water Temp Dewpoint Dewpoint Depression Visibility Wind Speed Wind Dir Waves Ship Positions

F/V Roger Christian3

Last reported at 2015-Jul-01 20:32 UTC. Time now 2015-Jul-01 21:07 UTC.
Position N 43°24' E 003°42'.

Length 24 m; draft 4 m.

Type: Fishing. MMSI: 228173800.

Date/timePositionNaut miles runAvg speedWind from/ knotsBaromVisibWave heightAir tempDewpointWater temp
2015-Jul-01 20:32N 43°24' E 003°42'0 0.0
2015-Jul-01 19:32N 43°24' E 003°42'0 0.0
2015-Jul-01 18:32N 43°24' E 003°42'0 0.0
2015-Jul-01 17:33N 43°24' E 003°42'0 0.0
2015-Jul-01 16:33N 43°24' E 003°42'3 3.0
2015-Jul-01 15:33N 43°21' E 003°43'1111.5
2015-Jul-01 14:33N 43°11' E 003°51'6 6.0
2015-Jul-01 13:30N 43°06' E 003°55'5 4.4
2015-Jul-01 12:20N 43°02' E 004°00'4 4.4
2015-Jul-01 11:29N 42°59' E 004°04'4 4.6
2015-Jul-01 10:31N 42°56' E 004°08'4 3.9
2015-Jul-01 09:30N 42°56' E 004°13'4 4.1
2015-Jul-01 08:31N 42°53' E 004°17'4 4.5
2015-Jul-01 07:33N 42°49' E 004°17'6 2.8
2015-Jul-01 05:30N 42°54' E 004°15'4 4.4
2015-Jul-01 04:32N 42°58' E 004°12'15 7.7
2015-Jul-01 02:32N 43°10' E 003°59'1111.2
2015-Jul-01 01:33N 43°18' E 003°48'8 7.7
2015-Jul-01 00:32N 43°24' E 003°42'0 0.0
2015-Jun-30 20:25N 43°24' E 003°42'0 0.0
2015-Jun-30 18:15N 43°24' E 003°42'0 0.0
2015-Jun-30 16:08N 43°24' E 003°42'0 0.2
2015-Jun-30 15:33N 43°24' E 003°42'9 9.4
2015-Jun-30 14:33N 43°18' E 003°52'1110.8
2015-Jun-30 13:34N 43°12' E 004°04'4 3.5
2015-Jun-30 12:33N 43°09' E 004°07'4 4.4
2015-Jun-30 11:33N 43°07' E 004°12'4 4.2
2015-Jun-30 10:33N 43°04' E 004°16'3 3.4
2015-Jun-30 09:33N 43°02' E 004°20'4 4.1
2015-Jun-30 08:33N 42°59' E 004°24'4 4.4
2015-Jun-30 07:33N 42°55' E 004°24'1 1.1
2015-Jun-30 06:33N 42°54' E 004°25'4 4.4
2015-Jun-30 05:33N 42°57' E 004°21'4 4.4
2015-Jun-30 04:33N 43°00' E 004°17'5 4.7
2015-Jun-30 03:31N 43°03' E 004°12'1111.6
2015-Jun-30 02:33N 43°11' E 004°00'1111.4
2015-Jun-30 01:33N 43°19' E 003°49'7 7.3
2015-Jun-30 00:32N 43°24' E 003°42'0 0.0
2015-Jun-29 21:26N 43°24' E 003°42'0 0.0
2015-Jun-29 20:33N 43°24' E 003°42'5 1.0
2015-Jun-29 15:26N 43°20' E 003°46'1011.1
2015-Jun-29 14:33N 43°13' E 003°56'7 7.0
2015-Jun-29 13:33N 43°09' E 004°04'17 3.9
2015-Jun-29 09:13N 42°58' E 004°22'3 4.1
2015-Jun-29 08:33N 42°56' E 004°23'4 4.3
2015-Jun-29 07:33N 42°52' E 004°24'3 2.6
2015-Jun-29 06:33N 42°54' E 004°23'4 4.3
2015-Jun-29 05:33N 42°58' E 004°21'4 4.3
2015-Jun-29 04:32N 43°02' E 004°17'4 3.9
2015-Jun-29 03:33N 43°04' E 004°13'1211.3
2015-Jun-29 02:31N 43°12' E 004°01'1111.3
2015-Jun-29 01:33N 43°19' E 003°49'8 2.4
2015-Jun-28 22:22N 43°24' E 003°42'0 0.0
2015-Jun-26 18:32N 43°24' E 003°42'0 0.1
2015-Jun-26 15:31N 43°24' E 003°42'1211.9
2015-Jun-26 14:33N 43°13' E 003°49'7 7.0
2015-Jun-26 13:32N 43°07' E 003°53'21 3.9
2015-Jun-26 08:13N 42°54' E 004°15'3 4.5
2015-Jun-26 07:32N 42°52' E 004°19'3 3.1
2015-Jun-26 06:31N 42°53' E 004°23'4 4.4
2015-Jun-26 05:33N 42°57' E 004°21'4 4.5
2015-Jun-26 04:33N 43°00' E 004°17'4 4.4
2015-Jun-26 03:33N 43°03' E 004°13'1211.5
2015-Jun-26 02:33N 43°11' E 004°01'1111.3
2015-Jun-26 01:33N 43°19' E 003°49'8 1.5
2015-Jun-25 20:31N 43°24' E 003°42'0 0.0
2015-Jun-25 19:33N 43°24' E 003°42'0 0.0
2015-Jun-25 18:33N 43°24' E 003°42'0 0.0
2015-Jun-25 17:33N 43°24' E 003°42'0 0.0
2015-Jun-25 16:32N 43°24' E 003°42'1 0.7
2015-Jun-25 15:33N 43°23' E 003°42'1110.3
2015-Jun-25 14:30N 43°13' E 003°48'1010.3
2015-Jun-25 13:32N 43°04' E 003°53'3 3.3
2015-Jun-25 12:33N 43°01' E 003°55'5 4.5
2015-Jun-25 11:31N 42°58' E 003°59'3 3.1
2015-Jun-25 10:25N 42°56' E 004°03'4 4.4
2015-Jun-25 09:33N 42°55' E 004°08'4 4.4
2015-Jun-25 08:33N 42°54' E 004°14'4 4.3
2015-Jun-25 07:33N 42°52' E 004°19'6 3.0
2015-Jun-25 05:27N 42°58' E 004°21'5 4.5
2015-Jun-25 04:14N 43°03' E 004°16'4 4.9
2015-Jun-25 03:30N 43°05' E 004°13'2211.0
2015-Jun-25 01:28N 43°20' E 003°50'7 1.8
2015-Jun-24 21:29N 43°24' E 003°42'0 0.0
2015-Jun-24 20:30N 43°24' E 003°42'0 0.0
2015-Jun-24 19:30N 43°24' E 003°42'0 0.0
2015-Jun-24 18:27N 43°24' E 003°42'19 3.0
2015-Jun-24 12:14N 43°13' E 004°02'3 4.4
2015-Jun-24 11:33N 43°12' E 004°06'4 4.4
2015-Jun-24 10:33N 43°11' E 004°12'26 0.7
2015-Jun-22 19:33N 43°24' E 003°42'0 0.0
2015-Jun-22 18:33N 43°24' E 003°42'0 0.0
2015-Jun-22 17:33N 43°24' E 003°42'0 0.0
2015-Jun-22 16:33N 43°24' E 003°42'3 2.7
2015-Jun-22 15:33N 43°22' E 003°43'1211.7
2015-Jun-22 14:32N 43°11' E 003°51'7 7.3
2015-Jun-22 13:32N 43°05' E 003°56'4 4.5
2015-Jun-22 12:33N 43°01' E 003°59'8 3.5
2015-Jun-22 10:15N 42°57' E 004°08'7 4.3
2015-Jun-22 08:33N 42°52' E 004°16'5 4.5
2015-Jun-22 07:29N 42°48' E 004°19'3 2.8
2015-Jun-22 06:28N 42°50' E 004°17'4 4.2
2015-Jun-22 05:33N 42°53' E 004°14'5 4.5
2015-Jun-22 04:31N 42°55' E 004°08'16 8.1
2015-Jun-22 02:33N 43°08' E 003°56'1211.6
2015-Jun-22 01:33N 43°18' E 003°48'7 7.2
2015-Jun-22 00:33N 43°24' E 003°42'  
Track history (hours):
 
Tides and Currents Weather Stations Pressure Air Temp Water Temp Dewpoint Dewpoint Depression Visibility Wind Speed Wind Dir Waves Ship Positions

F/V Roger Christian3

Last reported at 2015-Jul-01 20:32 UTC. Time now 2015-Jul-01 21:07 UTC.
Position N 43°24' E 003°42'.

Length 24 m; draft 4 m.

Type: Fishing. MMSI: 228173800.

Date/timePositionNaut miles runAvg speedWind from/ knotsBaromVisibWave heightAir tempDewpointWater temp
2015-Jul-01 20:32N 43°24' E 003°42'0 0.0
2015-Jul-01 19:32N 43°24' E 003°42'0 0.0
2015-Jul-01 18:32N 43°24' E 003°42'0 0.0
2015-Jul-01 17:33N 43°24' E 003°42'0 0.0
2015-Jul-01 16:33N 43°24' E 003°42'3 3.0
2015-Jul-01 15:33N 43°21' E 003°43'1111.5
2015-Jul-01 14:33N 43°11' E 003°51'6 6.0
2015-Jul-01 13:30N 43°06' E 003°55'5 4.4
2015-Jul-01 12:20N 43°02' E 004°00'4 4.4
2015-Jul-01 11:29N 42°59' E 004°04'4 4.6
2015-Jul-01 10:31N 42°56' E 004°08'4 3.9
2015-Jul-01 09:30N 42°56' E 004°13'4 4.1
2015-Jul-01 08:31N 42°53' E 004°17'4 4.5
2015-Jul-01 07:33N 42°49' E 004°17'6 2.8
2015-Jul-01 05:30N 42°54' E 004°15'4 4.4
2015-Jul-01 04:32N 42°58' E 004°12'15 7.7
2015-Jul-01 02:32N 43°10' E 003°59'1111.2
2015-Jul-01 01:33N 43°18' E 003°48'8 7.7
2015-Jul-01 00:32N 43°24' E 003°42'0 0.0
2015-Jun-30 20:25N 43°24' E 003°42'0 0.0
2015-Jun-30 18:15N 43°24' E 003°42'0 0.0
2015-Jun-30 16:08N 43°24' E 003°42'0 0.2
2015-Jun-30 15:33N 43°24' E 003°42'9 9.4
2015-Jun-30 14:33N 43°18' E 003°52'1110.8
2015-Jun-30 13:34N 43°12' E 004°04'4 3.5
2015-Jun-30 12:33N 43°09' E 004°07'4 4.4
2015-Jun-30 11:33N 43°07' E 004°12'4 4.2
2015-Jun-30 10:33N 43°04' E 004°16'3 3.4
2015-Jun-30 09:33N 43°02' E 004°20'4 4.1
2015-Jun-30 08:33N 42°59' E 004°24'4 4.4
2015-Jun-30 07:33N 42°55' E 004°24'1 1.1
2015-Jun-30 06:33N 42°54' E 004°25'4 4.4
2015-Jun-30 05:33N 42°57' E 004°21'4 4.4
2015-Jun-30 04:33N 43°00' E 004°17'5 4.7
2015-Jun-30 03:31N 43°03' E 004°12'1111.6
2015-Jun-30 02:33N 43°11' E 004°00'1111.4
2015-Jun-30 01:33N 43°19' E 003°49'7 7.3
2015-Jun-30 00:32N 43°24' E 003°42'0 0.0
2015-Jun-29 21:26N 43°24' E 003°42'0 0.0
2015-Jun-29 20:33N 43°24' E 003°42'5 1.0
2015-Jun-29 15:26N 43°20' E 003°46'1011.1
2015-Jun-29 14:33N 43°13' E 003°56'7 7.0
2015-Jun-29 13:33N 43°09' E 004°04'17 3.9
2015-Jun-29 09:13N 42°58' E 004°22'3 4.1
2015-Jun-29 08:33N 42°56' E 004°23'4 4.3
2015-Jun-29 07:33N 42°52' E 004°24'3 2.6
2015-Jun-29 06:33N 42°54' E 004°23'4 4.3
2015-Jun-29 05:33N 42°58' E 004°21'4 4.3
2015-Jun-29 04:32N 43°02' E 004°17'4 3.9
2015-Jun-29 03:33N 43°04' E 004°13'1211.3
2015-Jun-29 02:31N 43°12' E 004°01'1111.3
2015-Jun-29 01:33N 43°19' E 003°49'8 2.4
2015-Jun-28 22:22N 43°24' E 003°42'0 0.0
2015-Jun-26 18:32N 43°24' E 003°42'0 0.1
2015-Jun-26 15:31N 43°24' E 003°42'1211.9
2015-Jun-26 14:33N 43°13' E 003°49'7 7.0
2015-Jun-26 13:32N 43°07' E 003°53'21 3.9
2015-Jun-26 08:13N 42°54' E 004°15'3 4.5
2015-Jun-26 07:32N 42°52' E 004°19'3 3.1
2015-Jun-26 06:31N 42°53' E 004°23'4 4.4
2015-Jun-26 05:33N 42°57' E 004°21'4 4.5
2015-Jun-26 04:33N 43°00' E 004°17'4 4.4
2015-Jun-26 03:33N 43°03' E 004°13'1211.5
2015-Jun-26 02:33N 43°11' E 004°01'1111.3
2015-Jun-26 01:33N 43°19' E 003°49'8 1.5
2015-Jun-25 20:31N 43°24' E 003°42'0 0.0
2015-Jun-25 19:33N 43°24' E 003°42'0 0.0
2015-Jun-25 18:33N 43°24' E 003°42'0 0.0
2015-Jun-25 17:33N 43°24' E 003°42'0 0.0
2015-Jun-25 16:32N 43°24' E 003°42'1 0.7
2015-Jun-25 15:33N 43°23' E 003°42'1110.3
2015-Jun-25 14:30N 43°13' E 003°48'1010.3
2015-Jun-25 13:32N 43°04' E 003°53'3 3.3
2015-Jun-25 12:33N 43°01' E 003°55'5 4.5
2015-Jun-25 11:31N 42°58' E 003°59'3 3.1
2015-Jun-25 10:25N 42°56' E 004°03'4 4.4
2015-Jun-25 09:33N 42°55' E 004°08'4 4.4
2015-Jun-25 08:33N 42°54' E 004°14'4 4.3
2015-Jun-25 07:33N 42°52' E 004°19'6 3.0
2015-Jun-25 05:27N 42°58' E 004°21'5 4.5
2015-Jun-25 04:14N 43°03' E 004°16'4 4.9
2015-Jun-25 03:30N 43°05' E 004°13'2211.0
2015-Jun-25 01:28N 43°20' E 003°50'7 1.8
2015-Jun-24 21:29N 43°24' E 003°42'0 0.0
2015-Jun-24 20:30N 43°24' E 003°42'0 0.0
2015-Jun-24 19:30N 43°24' E 003°42'0 0.0
2015-Jun-24 18:27N 43°24' E 003°42'19 3.0
2015-Jun-24 12:14N 43°13' E 004°02'3 4.4
2015-Jun-24 11:33N 43°12' E 004°06'4 4.4
2015-Jun-24 10:33N 43°11' E 004°12'26 0.7
2015-Jun-22 19:33N 43°24' E 003°42'0 0.0
2015-Jun-22 18:33N 43°24' E 003°42'0 0.0
2015-Jun-22 17:33N 43°24' E 003°42'0 0.0
2015-Jun-22 16:33N 43°24' E 003°42'3 2.7
2015-Jun-22 15:33N 43°22' E 003°43'1211.7
2015-Jun-22 14:32N 43°11' E 003°51'7 7.3
2015-Jun-22 13:32N 43°05' E 003°56'4 4.5
2015-Jun-22 12:33N 43°01' E 003°59'8 3.5
2015-Jun-22 10:15N 42°57' E 004°08'7 4.3
2015-Jun-22 08:33N 42°52' E 004°16'5 4.5
2015-Jun-22 07:29N 42°48' E 004°19'3 2.8
2015-Jun-22 06:28N 42°50' E 004°17'4 4.2
2015-Jun-22 05:33N 42°53' E 004°14'5 4.5
2015-Jun-22 04:31N 42°55' E 004°08'16 8.1
2015-Jun-22 02:33N 43°08' E 003°56'1211.6
2015-Jun-22 01:33N 43°18' E 003°48'7 7.2
2015-Jun-22 00:33N 43°24' E 003°42'  

Dump ship's entire track history